Time;durP1;ratioP1;P1;durP2;ratioP2;P2;SDS_P1;SDS_P2;PMS_P1;PMS_P2;Temp;Humidity;BMP_temperature;BMP_pressure;BME280_temperature;BME280_humidity;BME280_pressure;Samples;Min_cycle;Max_cycle;Signal;HPM_P1;HPM_P2
2022/03/17 00:00:54;;;;;;;24.50;21.87;;;11.30;99.90;;;;;;5034596;28;20238;-60
2022/03/17 00:03:20;;;;;;;25.13;22.43;;;11.20;99.90;;;;;;5034336;28;20209;-60
2022/03/17 00:05:47;;;;;;;25.20;21.57;;;11.20;99.90;;;;;;5033865;28;20206;-59
2022/03/17 00:08:14;;;;;;;23.77;21.07;;;11.20;99.90;;;;;;5034440;28;20299;-58
2022/03/17 00:10:42;;;;;;;25.67;22.87;;;11.20;99.90;;;;;;5034285;28;20619;-60
2022/03/17 00:13:11;;;;;;;25.67;22.23;;;11.10;99.90;;;;;;5034214;28;20225;-60
2022/03/17 00:15:39;;;;;;;25.00;22.30;;;11.00;99.90;;;;;;5034222;28;20225;-59
2022/03/17 00:18:06;;;;;;;27.03;23.53;;;10.90;99.90;;;;;;5034358;28;20326;-59
2022/03/17 00:20:33;;;;;;;25.97;22.40;;;10.80;99.90;;;;;;5034173;28;20207;-59
2022/03/17 00:23:00;;;;;;;26.13;23.33;;;10.80;99.90;;;;;;5034238;28;20260;-59
2022/03/17 00:25:29;;;;;;;25.43;22.63;;;10.70;99.90;;;;;;5033702;28;20206;-61
2022/03/17 00:27:57;;;;;;;29.33;24.30;;;10.80;99.90;;;;;;5034234;28;20257;-59
2022/03/17 00:30:24;;;;;;;25.43;22.57;;;10.80;99.90;;;;;;5034085;28;20268;-59
2022/03/17 00:32:50;;;;;;;24.63;21.87;;;10.80;99.90;;;;;;5034086;28;20649;-60
2022/03/17 00:38:02;;;;;;;24.17;21.57;;;10.90;99.90;;;;;;5033484;28;20237;-59
2022/03/17 00:40:29;;;;;;;25.57;21.50;;;10.90;99.90;;;;;;5033817;28;20284;-59
2022/03/17 00:42:57;;;;;;;25.30;22.23;;;11.00;99.90;;;;;;5034006;28;20293;-59
2022/03/17 00:45:24;;;;;;;26.73;22.93;;;11.00;99.90;;;;;;5034086;28;20558;-59
2022/03/17 00:47:51;;;;;;;23.27;20.77;;;11.00;99.90;;;;;;5033706;28;20266;-59
2022/03/17 00:50:18;;;;;;;24.60;22.00;;;11.10;99.90;;;;;;5034130;28;20203;-59
2022/03/17 00:52:45;;;;;;;24.07;21.57;;;11.10;99.90;;;;;;5033558;28;20303;-59
2022/03/17 00:55:11;;;;;;;25.23;21.20;;;11.20;99.90;;;;;;5033491;28;20256;-59
2022/03/17 00:57:39;;;;;;;23.30;20.80;;;11.00;99.90;;;;;;5034181;28;20252;-59
2022/03/17 01:00:14;;;;;;;26.17;22.10;;;11.00;99.90;;;;;;5033404;28;20237;-59
2022/03/17 01:02:41;;;;;;;26.13;21.73;;;10.80;99.90;;;;;;5033521;28;20198;-59
2022/03/17 01:05:10;;;;;;;27.33;22.00;;;10.70;99.90;;;;;;5033527;28;20633;-59
2022/03/17 01:07:37;;;;;;;24.23;21.63;;;10.80;99.90;;;;;;5033100;28;20260;-59
2022/03/17 01:10:05;;;;;;;24.07;21.47;;;10.80;99.90;;;;;;5033072;28;20678;-60
2022/03/17 01:12:32;;;;;;;27.03;22.27;;;10.80;99.90;;;;;;5032999;28;20674;-59
2022/03/17 01:14:59;;;;;;;24.20;21.60;;;10.70;99.90;;;;;;5032657;28;20210;-59
2022/03/17 01:17:27;;;;;;;25.50;22.77;;;10.60;99.90;;;;;;5032570;28;20217;-59
2022/03/17 01:19:54;;;;;;;23.67;21.10;;;10.60;99.90;;;;;;5032763;28;20206;-59
2022/03/17 01:22:21;;;;;;;26.50;21.87;;;10.70;99.90;;;;;;5032882;28;20256;-59
2022/03/17 01:24:49;;;;;;;24.30;21.70;;;10.60;99.90;;;;;;5032717;28;20206;-59
2022/03/17 01:27:19;;;;;;;23.67;21.17;;;10.60;99.90;;;;;;5033455;28;20202;-59
2022/03/17 01:29:47;;;;;;;23.73;20.97;;;10.70;99.90;;;;;;5032911;28;20206;-59
2022/03/17 01:32:13;;;;;;;23.37;20.77;;;10.70;99.90;;;;;;5032558;28;20305;-59
2022/03/17 01:34:41;;;;;;;25.40;20.97;;;10.80;99.90;;;;;;5033150;28;20279;-59
2022/03/17 01:37:08;;;;;;;26.00;22.50;;;10.80;99.90;;;;;;5033404;28;20214;-59
2022/03/17 01:39:35;;;;;;;22.73;19.80;;;10.80;99.90;;;;;;5033508;28;20300;-59
2022/03/17 01:42:05;;;;;;;23.13;20.57;;;10.70;99.90;;;;;;5033250;28;20210;-58
2022/03/17 01:44:32;;;;;;;23.93;20.93;;;10.60;99.90;;;;;;5032041;28;20252;-59
2022/03/17 01:49:44;;;;;;;23.30;20.57;;;10.50;99.90;;;;;;5032515;28;20225;-58
2022/03/17 01:52:11;;;;;;;24.10;20.83;;;10.50;99.90;;;;;;5032358;28;20293;-58
2022/03/17 01:54:38;;;;;;;24.13;21.53;;;10.40;99.90;;;;;;5031844;28;20724;-59
2022/03/17 01:57:07;;;;;;;23.27;20.63;;;10.40;99.90;;;;;;5032146;28;20276;-59
2022/03/17 01:59:35;;;;;;;23.83;20.07;;;10.30;99.90;;;;;;5032251;28;20226;-58
2022/03/17 02:02:04;;;;;;;25.60;20.53;;;10.20;99.90;;;;;;5032416;28;20213;-58
2022/03/17 02:04:31;;;;;;;25.57;21.27;;;10.20;99.90;;;;;;5031945;28;20201;-59
2022/03/17 02:06:59;;;;;;;24.00;20.67;;;10.10;99.90;;;;;;5032726;28;20206;-58
2022/03/17 02:09:26;;;;;;;24.07;20.60;;;10.00;99.90;;;;;;5032163;28;20741;-58
2022/03/17 02:14:47;;;;;;;24.33;20.80;;;10.10;99.90;;;;;;5031779;28;20233;-59
2022/03/17 02:17:15;;;;;;;23.90;21.37;;;10.20;99.90;;;;;;5032243;28;20651;-59
2022/03/17 02:19:42;;;;;;;24.07;21.13;;;10.20;99.90;;;;;;5031843;28;20257;-59
2022/03/17 02:22:13;;;;;;;23.87;21.27;;;10.20;99.90;;;;;;5031736;28;20241;-59
2022/03/17 02:27:28;;;;;;;24.77;20.93;;;10.40;99.90;;;;;;5031816;28;20209;-58
2022/03/17 02:29:55;;;;;;;24.83;21.57;;;10.40;99.90;;;;;;5031871;28;20205;-58
2022/03/17 02:32:22;;;;;;;26.20;21.87;;;10.40;99.90;;;;;;5031665;28;20206;-58
2022/03/17 02:34:49;;;;;;;25.37;22.10;;;10.40;99.90;;;;;;5031587;28;20234;-59
2022/03/17 02:37:16;;;;;;;25.37;20.87;;;10.50;99.90;;;;;;5031868;28;20267;-59
2022/03/17 02:39:44;;;;;;;25.20;21.23;;;10.40;99.90;;;;;;5031733;28;20241;-59
2022/03/17 02:42:11;;;;;;;24.73;21.40;;;10.50;99.90;;;;;;5031872;28;20348;-58
2022/03/17 02:44:38;;;;;;;25.63;21.10;;;10.50;99.90;;;;;;5031743;28;20202;-58
2022/03/17 02:47:06;;;;;;;24.70;20.90;;;10.40;99.90;;;;;;5031691;28;20218;-58
2022/03/17 02:49:33;;;;;;;25.43;21.50;;;10.50;99.90;;;;;;5031711;28;20780;-59
2022/03/17 02:51:59;;;;;;;26.13;21.70;;;10.50;99.90;;;;;;5031752;28;20213;-59
2022/03/17 02:54:26;;;;;;;24.87;21.10;;;10.60;99.90;;;;;;5031653;28;20230;-58
2022/03/17 02:56:54;;;;;;;23.97;21.30;;;10.60;99.90;;;;;;5031809;28;20212;-58
2022/03/17 02:59:21;;;;;;;26.13;22.07;;;10.70;99.90;;;;;;5032952;28;20230;-59
2022/03/17 03:01:47;;;;;;;25.47;21.93;;;10.70;99.90;;;;;;5035414;28;20214;-59
2022/03/17 03:04:16;;;;;;;24.80;21.43;;;10.70;99.90;;;;;;5035602;28;20239;-59
2022/03/17 03:06:43;;;;;;;25.17;21.40;;;10.80;99.90;;;;;;5035708;28;20210;-58
2022/03/17 03:09:10;;;;;;;23.57;20.40;;;10.70;99.90;;;;;;5035812;28;20616;-58
2022/03/17 03:11:37;;;;;;;23.83;20.53;;;10.60;99.90;;;;;;5035769;28;20203;-58
2022/03/17 03:14:07;;;;;;;23.27;19.23;;;10.40;99.90;;;;;;5035752;28;20222;-59
2022/03/17 03:16:35;;;;;;;25.30;21.63;;;10.40;99.90;;;;;;5035374;28;20706;-59
2022/03/17 03:19:02;;;;;;;24.93;21.13;;;10.30;99.90;;;;;;5035093;28;20767;-59
2022/03/17 03:21:29;;;;;;;24.70;20.83;;;10.30;99.90;;;;;;5035286;28;20210;-58
2022/03/17 03:23:55;;;;;;;23.50;21.00;;;10.40;99.90;;;;;;5035066;28;20682;-59
2022/03/17 03:26:22;;;;;;;23.23;20.33;;;10.40;99.90;;;;;;5034861;28;20210;-58
2022/03/17 03:28:48;;;;;;;25.60;21.20;;;10.40;99.90;;;;;;5034830;28;20222;-58
2022/03/17 03:31:17;;;;;;;24.07;21.47;;;10.40;99.90;;;;;;5034946;28;20236;-59
2022/03/17 03:33:43;;;;;;;22.87;20.13;;;10.40;99.90;;;;;;5035011;28;20229;-59
2022/03/17 03:38:54;;;;;;;25.30;21.67;;;10.30;99.90;;;;;;5034833;28;20316;-58
2022/03/17 03:41:21;;;;;;;25.60;20.60;;;10.10;99.90;;;;;;5034563;28;20210;-58
2022/03/17 03:43:47;;;;;;;24.23;19.83;;;10.00;99.90;;;;;;5034538;28;20207;-58
2022/03/17 03:46:14;;;;;;;24.63;21.60;;;9.90;99.90;;;;;;5034602;28;20202;-58
2022/03/17 03:48:42;;;;;;;25.53;21.47;;;9.80;99.90;;;;;;5034661;28;20226;-58
2022/03/17 03:51:09;;;;;;;27.60;20.97;;;9.70;99.90;;;;;;5034677;28;20202;-58
2022/03/17 03:56:16;;;;;;;24.47;21.07;;;9.60;99.90;;;;;;5033273;28;20201;-59
2022/03/17 03:58:43;;;;;;;25.37;20.40;;;9.70;99.90;;;;;;5034438;28;20284;-59
2022/03/17 04:01:10;;;;;;;25.03;21.00;;;9.80;99.90;;;;;;5034167;28;20667;-58
2022/03/17 04:03:36;;;;;;;24.50;21.20;;;9.80;99.90;;;;;;5034359;28;20256;-58
2022/03/17 04:06:04;;;;;;;24.73;20.87;;;9.70;99.90;;;;;;5034283;28;20202;-58
2022/03/17 04:08:31;;;;;;;24.50;21.30;;;9.70;99.90;;;;;;5034225;28;20249;-58
2022/03/17 04:10:58;;;;;;;22.23;19.20;;;9.70;99.90;;;;;;5033996;28;20210;-57
2022/03/17 04:13:24;;;;;;;23.83;20.70;;;9.70;99.90;;;;;;5034292;28;20222;-57
2022/03/17 04:15:51;;;;;;;25.87;21.60;;;9.60;99.90;;;;;;5034081;28;20213;-57
2022/03/17 04:18:18;;;;;;;22.77;20.37;;;9.60;99.90;;;;;;5034107;28;20230;-58
2022/03/17 04:20:45;;;;;;;23.13;20.00;;;9.60;99.90;;;;;;5034064;28;20210;-57
2022/03/17 04:23:13;;;;;;;24.83;20.07;;;9.70;99.90;;;;;;5033944;28;20670;-57
2022/03/17 04:25:39;;;;;;;25.77;20.83;;;9.80;99.90;;;;;;5033824;28;20229;-58
2022/03/17 04:28:06;;;;;;;23.20;20.13;;;9.70;99.90;;;;;;5033781;28;20745;-58
2022/03/17 04:30:36;;;;;;;23.63;20.50;;;9.80;99.90;;;;;;5033834;28;20206;-58
2022/03/17 04:33:03;;;;;;;24.63;20.23;;;9.80;99.90;;;;;;5033779;28;20210;-58
2022/03/17 04:35:30;;;;;;;22.97;19.67;;;9.80;99.90;;;;;;5033786;28;20280;-58
2022/03/17 04:37:56;;;;;;;24.20;20.33;;;9.70;99.90;;;;;;5033531;28;20776;-57
2022/03/17 04:40:24;;;;;;;22.93;20.03;;;9.70;99.90;;;;;;5034072;28;20256;-58
2022/03/17 04:42:51;;;;;;;24.60;20.63;;;9.80;99.90;;;;;;5033707;28;20211;-58
2022/03/17 04:45:18;;;;;;;23.00;20.10;;;9.80;99.90;;;;;;5033364;28;20663;-57
2022/03/17 04:47:45;;;;;;;23.77;19.87;;;9.80;99.90;;;;;;5033805;28;20222;-57
2022/03/17 04:50:11;;;;;;;24.43;21.20;;;9.70;99.90;;;;;;5033463;28;20264;-58
2022/03/17 04:55:23;;;;;;;25.80;20.40;;;9.70;99.90;;;;;;5033217;28;20225;-58
2022/03/17 04:57:51;;;;;;;24.23;20.50;;;9.80;99.90;;;;;;5033237;28;20372;-58
2022/03/17 05:00:17;;;;;;;22.77;20.10;;;9.80;99.90;;;;;;5033164;28;20209;-58
2022/03/17 05:02:44;;;;;;;23.27;19.60;;;9.80;99.90;;;;;;5033358;28;20213;-58
2022/03/17 05:05:11;;;;;;;24.33;20.50;;;9.80;99.90;;;;;;5033075;28;20640;-58
2022/03/17 05:07:37;;;;;;;24.70;20.43;;;9.80;99.90;;;;;;5032909;28;20276;-58
2022/03/17 05:10:06;;;;;;;24.03;20.50;;;9.70;99.90;;;;;;5033176;28;20697;-57
2022/03/17 05:12:34;;;;;;;22.40;19.07;;;9.80;99.90;;;;;;5033157;28;20210;-58
2022/03/17 05:15:01;;;;;;;23.90;19.83;;;9.80;99.90;;;;;;5032482;28;20252;-58
2022/03/17 05:17:30;;;;;;;23.80;20.47;;;9.60;99.90;;;;;;5033004;28;20312;-58
2022/03/17 05:19:57;;;;;;;24.90;19.97;;;9.60;99.90;;;;;;5033039;28;20730;-57
2022/03/17 05:22:23;;;;;;;22.80;20.20;;;9.50;99.90;;;;;;5032670;28;20210;-58
2022/03/17 05:24:51;;;;;;;23.37;20.30;;;9.50;99.90;;;;;;5032762;28;20210;-58
2022/03/17 05:27:18;;;;;;;24.60;20.30;;;9.50;99.90;;;;;;5032876;28;20708;-58
2022/03/17 05:29:46;;;;;;;24.67;21.03;;;9.60;99.90;;;;;;5032761;28;20206;-58
2022/03/17 05:32:12;;;;;;;28.53;22.93;;;9.70;99.90;;;;;;5032970;28;20210;-58
2022/03/17 05:34:39;;;;;;;24.80;20.57;;;9.90;99.90;;;;;;5032773;28;20234;-58
2022/03/17 05:37:06;;;;;;;25.80;21.07;;;10.00;99.90;;;;;;5032892;28;20214;-59
2022/03/17 05:39:33;;;;;;;25.53;20.50;;;10.20;99.90;;;;;;5032351;28;20240;-58
2022/03/17 05:42:00;;;;;;;23.40;19.90;;;10.30;99.90;;;;;;5032551;28;20686;-58
2022/03/17 05:44:27;;;;;;;23.23;20.07;;;10.30;99.90;;;;;;5032312;28;20206;-58
2022/03/17 05:46:55;;;;;;;27.50;23.60;;;10.40;99.90;;;;;;5032558;28;20210;-59
2022/03/17 05:49:21;;;;;;;25.17;20.80;;;10.20;99.90;;;;;;5032680;28;20317;-58
2022/03/17 05:51:48;;;;;;;23.43;20.57;;;10.30;99.90;;;;;;5032621;28;20210;-58
2022/03/17 05:54:14;;;;;;;24.17;19.47;;;10.40;99.90;;;;;;5031995;28;20233;-59
2022/03/17 05:56:41;;;;;;;24.80;20.43;;;10.50;99.90;;;;;;5032320;28;20218;-59
2022/03/17 05:59:08;;;;;;;22.97;19.67;;;10.60;99.90;;;;;;5032359;28;20230;-58
2022/03/17 06:01:35;;;;;;;24.07;19.70;;;10.60;99.90;;;;;;5032272;28;20260;-58
2022/03/17 06:04:03;;;;;;;22.60;19.40;;;10.70;99.90;;;;;;5032339;28;20202;-58
2022/03/17 06:06:29;;;;;;;21.77;19.37;;;10.70;99.90;;;;;;5032097;28;20203;-58
2022/03/17 06:08:56;;;;;;;23.97;19.80;;;10.60;99.90;;;;;;5031988;28;20234;-58
2022/03/17 06:11:23;;;;;;;23.77;19.87;;;10.60;99.90;;;;;;5031909;28;20206;-58
2022/03/17 06:13:50;;;;;;;22.00;19.60;;;10.70;99.90;;;;;;5031757;28;20214;-58
2022/03/17 06:16:16;;;;;;;24.27;20.27;;;10.70;99.90;;;;;;5031649;28;20214;-58
2022/03/17 06:18:43;;;;;;;25.17;21.60;;;10.80;99.90;;;;;;5032114;28;20253;-58
2022/03/17 06:21:11;;;;;;;27.33;21.50;;;10.70;99.90;;;;;;5032122;28;20210;-58
2022/03/17 06:23:38;;;;;;;25.17;21.17;;;10.90;99.90;;;;;;5032028;28;20209;-58
2022/03/17 06:26:04;;;;;;;25.40;21.53;;;10.90;99.90;;;;;;5031977;28;20198;-58
2022/03/17 06:28:31;;;;;;;24.13;21.33;;;11.00;99.90;;;;;;5032182;28;20226;-58
2022/03/17 06:30:58;;;;;;;22.17;19.77;;;11.10;99.90;;;;;;5031998;28;20206;-58
2022/03/17 06:33:25;;;;;;;30.10;20.90;;;11.10;99.90;;;;;;5032437;28;20202;-58
2022/03/17 06:35:52;;;;;;;25.03;20.73;;;11.10;99.90;;;;;;5035724;28;20561;-58
2022/03/17 06:38:20;;;;;;;23.27;19.57;;;11.00;99.90;;;;;;5035754;28;20234;-58
2022/03/17 06:40:47;;;;;;;23.20;20.47;;;10.90;99.90;;;;;;5035961;28;20205;-58
2022/03/17 06:43:14;;;;;;;23.47;20.27;;;10.70;99.90;;;;;;5035839;28;20667;-58
2022/03/17 06:45:41;;;;;;;22.87;19.90;;;10.60;99.90;;;;;;5035660;28;20206;-58
2022/03/17 06:48:08;;;;;;;25.70;20.67;;;10.60;99.90;;;;;;5035497;28;20237;-58
2022/03/17 06:50:35;;;;;;;23.70;20.30;;;10.60;99.90;;;;;;5035626;28;20209;-58
2022/03/17 06:53:02;;;;;;;26.43;20.37;;;10.60;99.90;;;;;;5035371;28;20229;-58
2022/03/17 06:55:31;;;;;;;23.20;20.20;;;10.60;99.90;;;;;;5035502;28;20237;-57
2022/03/17 06:57:58;;;;;;;25.10;19.73;;;10.60;99.90;;;;;;5035289;28;20230;-62
2022/03/17 07:00:24;;;;;;;24.70;20.77;;;10.70;99.90;;;;;;5035608;28;20206;-57
2022/03/17 07:02:51;;;;;;;25.30;19.27;;;10.80;99.90;;;;;;5035449;28;20239;-57
2022/03/17 07:05:18;;;;;;;27.57;21.00;;;10.90;99.90;;;;;;5035143;28;20208;-57
2022/03/17 07:07:45;;;;;;;25.83;20.63;;;10.90;99.90;;;;;;5035547;28;20718;-57
2022/03/17 07:10:13;;;;;;;23.10;20.60;;;11.10;99.90;;;;;;5035610;28;20202;-56
2022/03/17 07:12:42;;;;;;;23.80;19.97;;;11.30;99.90;;;;;;5035428;28;20214;-57
2022/03/17 07:15:09;;;;;;;25.97;20.20;;;11.50;99.90;;;;;;5034806;28;20230;-57
2022/03/17 07:17:39;;;;;;;23.67;20.77;;;11.60;99.90;;;;;;5035143;28;20210;-57
2022/03/17 07:20:07;;;;;;;23.47;20.23;;;11.70;99.90;;;;;;5035131;28;20202;-58
2022/03/17 07:22:33;;;;;;;23.27;20.77;;;11.90;99.90;;;;;;5035507;28;20225;-57
2022/03/17 07:25:00;;;;;;;23.50;20.97;;;11.80;99.90;;;;;;5034867;28;20202;-57
2022/03/17 07:27:27;;;;;;;24.33;20.30;;;11.70;99.90;;;;;;5034910;28;20210;-56
2022/03/17 07:29:55;;;;;;;25.23;20.57;;;11.70;99.90;;;;;;5035232;28;20712;-56
2022/03/17 07:32:22;;;;;;;23.87;19.77;;;11.60;99.90;;;;;;5035160;28;20206;-57
2022/03/17 07:34:50;;;;;;;24.70;21.13;;;11.70;99.90;;;;;;5034667;28;20230;-56
2022/03/17 07:37:17;;;;;;;24.13;20.90;;;11.80;99.90;;;;;;5035074;28;20333;-57
2022/03/17 07:39:44;;;;;;;26.23;20.93;;;12.00;99.90;;;;;;5057282;22;20230;-61
2022/03/17 07:42:10;;;;;;;24.30;20.50;;;12.20;99.90;;;;;;5034641;28;20206;-60
2022/03/17 07:44:37;;;;;;;23.70;20.00;;;12.40;99.90;;;;;;5033863;28;20202;-58
2022/03/17 07:47:08;;;;;;;24.97;19.53;;;12.50;99.90;;;;;;5034263;28;20744;-61
2022/03/17 07:49:35;;;;;;;23.47;20.77;;;12.70;99.90;;;;;;5018353;28;20258;-61
2022/03/17 07:52:02;;;;;;;23.97;20.90;;;12.70;99.90;;;;;;5014797;28;20210;-61
2022/03/17 07:54:29;;;;;;;23.87;20.33;;;12.70;99.90;;;;;;5014528;28;20211;-61
2022/03/17 07:56:56;;;;;;;24.97;21.03;;;12.70;99.90;;;;;;5014186;28;20207;-61
2022/03/17 07:59:24;;;;;;;22.17;19.87;;;12.70;99.90;;;;;;5014446;28;20310;-60
2022/03/17 08:01:51;;;;;;;26.73;23.83;;;13.00;99.90;;;;;;5014318;28;20234;-61
2022/03/17 08:04:19;;;;;;;24.53;20.90;;;13.00;99.90;;;;;;5014565;28;20207;-60
2022/03/17 08:06:46;;;;;;;22.53;20.13;;;13.20;99.90;;;;;;5014143;28;20207;-59
2022/03/17 08:09:12;;;;;;;27.00;21.60;;;13.20;99.90;;;;;;5014249;28;20676;-60
2022/03/17 08:11:39;;;;;;;24.23;20.90;;;13.20;99.90;;;;;;5014283;28;20215;-60
2022/03/17 08:14:06;;;;;;;26.60;23.03;;;12.90;99.90;;;;;;5014066;28;20253;-60
2022/03/17 08:16:32;;;;;;;24.30;19.77;;;12.70;99.90;;;;;;5013397;28;20230;-60
2022/03/17 08:18:59;;;;;;;27.23;21.67;;;12.60;99.90;;;;;;5014150;28;20230;-60
2022/03/17 08:21:27;;;;;;;23.97;20.87;;;12.60;99.90;;;;;;5014315;28;20217;-60
2022/03/17 08:23:54;;;;;;;25.03;20.67;;;12.70;99.90;;;;;;5013995;28;20214;-60
2022/03/17 08:26:20;;;;;;;24.93;21.20;;;12.70;99.90;;;;;;5013433;28;20686;-60
2022/03/17 08:28:47;;;;;;;22.50;20.10;;;12.80;99.90;;;;;;5013887;28;20293;-60
2022/03/17 08:31:14;;;;;;;23.67;21.07;;;12.70;99.90;;;;;;5014050;28;20211;-60
2022/03/17 08:33:40;;;;;;;23.97;20.83;;;12.80;99.90;;;;;;5013742;28;20626;-60
2022/03/17 08:36:07;;;;;;;23.80;20.80;;;12.80;99.90;;;;;;5013536;28;20223;-60
2022/03/17 08:38:35;;;;;;;25.10;21.03;;;12.90;99.90;;;;;;5013616;28;20300;-60
2022/03/17 08:41:02;;;;;;;23.40;20.17;;;12.90;99.90;;;;;;5013544;28;20214;-60
2022/03/17 08:43:29;;;;;;;23.70;21.13;;;12.80;99.90;;;;;;5013478;28;20242;-60
2022/03/17 08:51:25;;;;;;;25.63;21.43;;;12.60;99.90;;;;;;5013588;28;20697;-59
2022/03/17 08:53:53;;;;;;;26.70;21.83;;;12.70;99.90;;;;;;5013489;28;20277;-60
2022/03/17 08:56:20;;;;;;;25.53;20.53;;;12.60;99.90;;;;;;5012646;28;20582;-60
2022/03/17 08:58:46;;;;;;;25.70;21.93;;;12.60;99.90;;;;;;5013054;28;20306;-60
2022/03/17 09:01:13;;;;;;;26.33;23.13;;;12.50;99.90;;;;;;5013015;28;20630;-60
2022/03/17 09:03:40;;;;;;;27.53;22.67;;;12.60;99.90;;;;;;5012895;28;20677;-61
2022/03/17 09:06:06;;;;;;;26.27;21.37;;;12.70;99.90;;;;;;5012741;28;20256;-60
2022/03/17 09:08:33;;;;;;;24.53;20.77;;;12.90;99.90;;;;;;5012920;28;20230;-60
2022/03/17 09:11:01;;;;;;;24.13;21.53;;;13.20;99.90;;;;;;5013551;28;20257;-60
2022/03/17 09:13:28;;;;;;;24.87;21.10;;;13.40;99.90;;;;;;5013224;28;20211;-61
2022/03/17 09:15:56;;;;;;;24.37;20.83;;;13.60;99.90;;;;;;5013022;28;20230;-61
2022/03/17 09:18:23;;;;;;;25.60;21.23;;;13.60;99.90;;;;;;5013248;28;20318;-61
2022/03/17 09:20:51;;;;;;;23.97;21.20;;;13.50;99.90;;;;;;5013083;28;20293;-60
2022/03/17 09:23:18;;;;;;;24.37;20.97;;;13.50;99.90;;;;;;5013163;28;20211;-60
2022/03/17 09:25:45;;;;;;;25.87;21.60;;;13.50;99.90;;;;;;5012812;28;20207;-60
2022/03/17 09:28:14;;;;;;;26.30;20.57;;;13.50;99.90;;;;;;5012872;28;20588;-61
2022/03/17 09:30:41;;;;;;;23.97;20.43;;;13.50;99.90;;;;;;5012880;28;20229;-61
2022/03/17 09:33:09;;;;;;;27.57;21.03;;;13.70;99.90;;;;;;5012732;28;20284;-60
2022/03/17 09:35:36;;;;;;;24.63;21.40;;;13.80;99.80;;;;;;5012635;28;20258;-61
2022/03/17 09:38:03;;;;;;;27.70;22.17;;;13.90;99.80;;;;;;5012827;28;20239;-60
2022/03/17 09:40:30;;;;;;;25.07;22.37;;;14.10;99.60;;;;;;5013077;28;20211;-60
2022/03/17 09:45:41;;;;;;;25.37;21.50;;;14.30;99.50;;;;;;5011945;28;20203;-60
2022/03/17 09:48:10;;;;;;;24.97;22.30;;;14.30;99.50;;;;;;5012612;28;20254;-60
2022/03/17 09:50:37;;;;;;;29.93;23.23;;;14.40;99.40;;;;;;5012639;28;20210;-60
2022/03/17 09:53:04;;;;;;;27.03;22.30;;;14.40;99.50;;;;;;5012525;28;20252;-60
2022/03/17 09:55:31;;;;;;;29.10;23.13;;;14.50;99.40;;;;;;5011893;28;20280;-61
2022/03/17 09:57:58;;;;;;;24.50;21.77;;;14.70;99.10;;;;;;5012214;28;20234;-61
2022/03/17 10:00:47;;;;;;;24.77;22.00;;;14.80;98.80;;;;;;5012291;28;20288;-61
2022/03/17 10:03:13;;;;;;;28.03;23.67;;;14.90;98.70;;;;;;5012051;28;20258;-61
2022/03/17 10:05:40;;;;;;;28.10;21.90;;;14.90;98.50;;;;;;5012142;28;20581;-61
2022/03/17 10:08:07;;;;;;;26.47;23.27;;;15.00;98.40;;;;;;5011761;28;20701;-60
2022/03/17 10:10:37;;;;;;;26.50;22.37;;;15.10;98.50;;;;;;5012169;28;20215;-61
2022/03/17 10:13:10;;;;;;;25.63;21.10;;;15.20;98.40;;;;;;5011799;28;20294;-61
2022/03/17 10:15:37;;;;;;;27.00;22.13;;;15.30;98.00;;;;;;5012431;28;20227;-60
2022/03/17 10:18:21;;;;;;;25.17;21.93;;;15.30;97.80;;;;;;5012116;28;20230;-61
2022/03/17 10:20:48;;;;;;;28.60;22.27;;;15.20;98.00;;;;;;5011932;28;20228;-61
2022/03/17 10:23:24;;;;;;;25.30;21.60;;;15.20;98.20;;;;;;5011876;28;20257;-61
2022/03/17 10:25:55;;;;;;;28.20;22.93;;;15.20;98.10;;;;;;5011893;28;20290;-61
2022/03/17 10:28:23;;;;;;;24.97;21.77;;;15.20;98.10;;;;;;5012011;28;20254;-61
2022/03/17 10:30:50;;;;;;;26.57;22.27;;;15.20;98.10;;;;;;5011865;28;20683;-60
2022/03/17 10:33:21;;;;;;;26.23;20.97;;;15.20;98.00;;;;;;5012087;28;20570;-61
2022/03/17 10:35:49;;;;;;;24.53;21.13;;;15.20;98.00;;;;;;5011767;28;20230;-60
2022/03/17 10:38:18;;;;;;;24.03;20.93;;;15.30;98.10;;;;;;5011998;28;20316;-67
2022/03/17 10:41:00;;;;;;;24.03;21.37;;;15.40;98.00;;;;;;5012128;28;20214;-65
2022/03/17 10:43:29;;;;;;;34.87;29.20;;;15.50;98.00;;;;;;4992205;28;20207;-62
2022/03/17 10:46:05;;;;;;;24.17;21.67;;;15.50;98.00;;;;;;4992405;28;20740;-63
2022/03/17 10:48:34;;;;;;;26.77;22.33;;;15.50;97.70;;;;;;4992173;28;20289;-63
2022/03/17 10:51:00;;;;;;;25.37;21.53;;;15.50;97.70;;;;;;4992142;28;20212;-63
2022/03/17 10:53:28;;;;;;;28.43;22.23;;;15.50;97.70;;;;;;4992411;28;20207;-65
2022/03/17 10:56:10;;;;;;;24.53;21.63;;;15.50;97.70;;;;;;4991993;28;20588;-64
2022/03/17 10:58:42;;;;;;;23.73;21.10;;;15.70;97.60;;;;;;4992031;28;20322;-64
2022/03/17 11:01:09;;;;;;;24.97;21.07;;;15.70;97.30;;;;;;4992068;28;20303;-64
2022/03/17 11:03:38;;;;;;;23.93;21.20;;;15.90;97.20;;;;;;4991778;28;20215;-62
2022/03/17 11:06:06;;;;;;;24.83;22.17;;;15.90;97.40;;;;;;4991628;28;20210;-63
2022/03/17 11:08:33;;;;;;;27.97;21.70;;;15.90;97.20;;;;;;4991945;28;20693;-63
2022/03/17 11:11:00;;;;;;;24.70;21.87;;;16.10;96.90;;;;;;4992054;28;20266;-61
2022/03/17 11:13:27;;;;;;;25.60;21.17;;;16.20;97.00;;;;;;4991819;28;20247;-62
2022/03/17 11:16:00;;;;;;;24.90;21.17;;;16.40;96.90;;;;;;4991406;28;20266;-65
2022/03/17 11:18:31;;;;;;;23.27;20.77;;;16.40;96.90;;;;;;4992172;28;20235;-61
2022/03/17 11:21:17;;;;;;;23.97;21.23;;;16.10;97.00;;;;;;4996528;28;20239;-61
2022/03/17 11:23:55;;;;;;;23.07;20.50;;;16.00;97.10;;;;;;4996137;28;20299;-61
2022/03/17 11:26:25;;;;;;;25.67;21.97;;;16.00;97.20;;;;;;4995019;28;20242;-62
2022/03/17 11:28:58;;;;;;;23.70;21.20;;;16.10;97.20;;;;;;4995015;28;20703;-62
2022/03/17 11:31:27;;;;;;;25.13;22.00;;;16.20;97.30;;;;;;4995473;28;20628;-62
2022/03/17 11:33:59;;;;;;;24.73;20.23;;;16.40;97.10;;;;;;4995083;28;20212;-63
2022/03/17 11:36:27;;;;;;;27.37;21.83;;;16.50;96.90;;;;;;4991049;28;20318;-62
2022/03/17 11:39:18;;;;;;;24.37;21.40;;;16.40;97.20;;;;;;4992207;28;20227;-61
2022/03/17 11:41:47;;;;;;;24.37;20.57;;;16.50;97.20;;;;;;4994894;28;20215;-62
2022/03/17 11:44:14;;;;;;;24.63;21.87;;;16.60;97.00;;;;;;4995143;28;20204;-63
2022/03/17 11:46:45;;;;;;;24.63;21.77;;;16.50;96.90;;;;;;4993804;28;20719;-62
2022/03/17 11:49:30;;;;;;;23.47;20.17;;;16.40;97.30;;;;;;4994658;28;20228;-62
2022/03/17 11:52:00;;;;;;;27.00;21.30;;;16.30;97.20;;;;;;4994589;28;20227;-62
2022/03/17 11:54:28;;;;;;;24.60;21.40;;;15.60;97.90;;;;;;4994893;28;20220;-65
2022/03/17 11:56:57;;;;;;;38.53;22.87;;;15.40;98.30;;;;;;4994095;28;20314;-65
2022/03/17 11:59:30;;;;;;;26.67;21.37;;;15.10;98.50;;;;;;4992812;28;20232;-64
2022/03/17 12:01:57;;;;;;;27.50;21.03;;;15.00;99.00;;;;;;4994609;28;20221;-62
2022/03/17 12:04:30;;;;;;;27.67;23.30;;;14.90;99.30;;;;;;4994286;28;20212;-61
2022/03/17 12:07:08;;;;;;;26.03;20.43;;;15.00;99.50;;;;;;4994575;28;20207;-68
2022/03/17 12:09:36;;;;;;;27.03;21.50;;;15.10;99.20;;;;;;4994644;28;20227;-61
2022/03/17 12:12:03;;;;;;;25.53;20.90;;;15.10;99.30;;;;;;4994752;28;20315;-61
2022/03/17 12:14:30;;;;;;;29.27;21.47;;;14.90;99.40;;;;;;4994405;28;20215;-60
2022/03/17 12:16:58;;;;;;;26.77;21.33;;;14.70;99.80;;;;;;4993956;28;20234;-60
2022/03/17 12:19:33;;;;;;;29.57;21.77;;;14.80;99.80;;;;;;4993807;28;20285;-60
2022/03/17 12:22:19;;;;;;;27.50;21.80;;;14.90;99.90;;;;;;4994510;28;20211;-60
2022/03/17 12:24:51;;;;;;;29.70;23.73;;;15.10;99.90;;;;;;4994682;28;20250;-60
2022/03/17 12:27:22;;;;;;;30.00;23.10;;;15.30;99.50;;;;;;4994097;28;20211;-60
2022/03/17 12:29:50;;;;;;;26.43;22.23;;;15.50;99.20;;;;;;4994365;28;20224;-60
2022/03/17 12:32:19;;;;;;;28.53;21.10;;;15.70;99.20;;;;;;4994176;28;20211;-61
2022/03/17 12:34:47;;;;;;;27.80;21.37;;;15.90;99.00;;;;;;4994041;28;20203;-60
2022/03/17 12:37:16;;;;;;;26.70;22.30;;;16.20;98.90;;;;;;4993961;28;20599;-61
2022/03/17 12:39:48;;;;;;;24.83;21.60;;;16.30;99.00;;;;;;4993929;28;20290;-59
2022/03/17 12:42:18;;;;;;;26.97;21.93;;;16.10;99.30;;;;;;4994031;28;20211;-60
2022/03/17 12:44:55;;;;;;;25.07;21.67;;;15.60;99.90;;;;;;4994220;28;20207;-60
2022/03/17 12:47:25;;;;;;;23.93;21.27;;;15.40;99.90;;;;;;4993490;28;20215;-60
2022/03/17 12:49:52;;;;;;;29.50;22.63;;;15.10;99.90;;;;;;4993864;28;20240;-60
2022/03/17 12:52:22;;;;;;;24.80;22.10;;;14.90;99.90;;;;;;4993859;28;20212;-60
2022/03/17 12:54:50;;;;;;;26.47;22.60;;;15.10;99.90;;;;;;4994418;28;20208;-60
2022/03/17 12:57:17;;;;;;;30.73;22.77;;;15.30;99.90;;;;;;4993199;28;20803;-59
2022/03/17 12:59:44;;;;;;;26.23;22.17;;;15.50;99.90;;;;;;4993343;28;20270;-59